Time;durP1;ratioP1;P1;durP2;ratioP2;P2;SDS_P1;SDS_P2;PMS_P1;PMS_P2;Temp;Humidity;BMP_temperature;BMP_pressure;BME280_temperature;BME280_humidity;BME280_pressure;Samples;Min_cycle;Max_cycle;Signal;HPM_P1;HPM_P2
2023/02/26 00:02:25;;;;;;;0.20;0.20;;;;;;;12.66;69.01;98409.34;5035541;28;20032;-68
2023/02/26 00:04:53;;;;;;;0.20;0.20;;;;;;;12.57;68.75;98405.09;5036423;28;20017;-67
2023/02/26 00:07:19;;;;;;;0.20;0.20;;;;;;;12.62;68.91;98406.59;5054449;28;20417;-67
2023/02/26 00:09:44;;;;;;;0.20;0.20;;;;;;;12.62;69.20;98401.00;5036373;28;20033;-68
2023/02/26 00:12:11;;;;;;;0.20;0.20;;;;;;;12.54;69.42;98396.75;5036870;28;20478;-69
2023/02/26 00:14:37;;;;;;;0.20;0.20;;;;;;;12.50;69.06;98399.56;5053906;28;20053;-68
2023/02/26 00:17:35;;;;;;;0.20;0.20;;;;;;;12.64;69.03;98398.59;5036049;28;20081;-67
2023/02/26 00:20:02;;;;;;;0.20;0.20;;;;;;;12.76;68.07;98394.44;5036464;28;20024;-69
2023/02/26 00:22:28;;;;;;;0.20;0.20;;;;;;;12.73;68.13;98395.28;5036703;28;20036;-68
2023/02/26 00:24:56;;;;;;;0.20;0.20;;;;;;;12.77;68.35;98390.44;5036152;28;20375;-68
2023/02/26 00:27:22;;;;;;;0.20;0.20;;;;;;;12.74;68.45;98385.72;5036692;28;20469;-68
2023/02/26 00:29:47;;;;;;;0.20;0.20;;;;;;;12.76;68.62;98383.28;5035985;28;20124;-68
2023/02/26 00:32:13;;;;;;;0.20;0.20;;;;;;;12.91;68.38;98379.06;5035826;28;20029;-68
2023/02/26 00:34:39;;;;;;;0.20;0.20;;;;;;;12.99;68.23;98374.94;5035740;28;20053;-68
2023/02/26 00:37:23;;;;;;;0.20;0.20;;;;;;;13.02;67.95;98373.31;5036157;28;20037;-68
2023/02/26 00:40:01;;;;;;;0.20;0.20;;;;;;;13.02;68.39;98376.91;5036513;28;20028;-68
2023/02/26 00:42:26;;;;;;;0.20;0.20;;;;;;;12.87;68.51;98356.00;5036443;28;20029;-68
2023/02/26 00:44:52;;;;;;;0.20;0.20;;;;;;;13.01;68.38;98366.97;5036322;28;20025;-67
2023/02/26 00:47:44;;;;;;;0.20;0.20;;;;;;;12.97;67.95;98365.44;5036139;28;20037;-69
2023/02/26 00:50:15;;;;;;;0.20;0.20;;;;;;;12.88;68.97;98371.53;5036189;28;20033;-68
2023/02/26 00:53:03;;;;;;;0.20;0.20;;;;;;;12.73;69.23;98347.84;5036151;28;20032;-68
2023/02/26 00:55:29;;;;;;;0.20;0.20;;;;;;;12.76;69.50;98355.38;5053590;28;20072;-68
2023/02/26 00:57:54;;;;;;;0.20;0.20;;;;;;;12.73;69.99;98354.25;5036073;28;20032;-68
2023/02/26 01:00:20;;;;;;;0.20;0.20;;;;;;;12.74;70.55;98357.81;5036070;28;20021;-68
2023/02/26 01:02:47;;;;;;;0.20;0.20;;;;;;;12.68;70.81;98362.28;5036066;28;20090;-67
2023/02/26 01:05:13;;;;;;;0.20;0.20;;;;;;;12.69;70.94;98349.91;5035825;28;20032;-68
2023/02/26 01:07:55;;;;;;;0.20;0.20;;;;;;;12.64;70.90;98353.19;5035491;28;20029;-68
2023/02/26 01:10:21;;;;;;;0.20;0.20;;;;;;;12.57;71.81;98354.88;5035520;28;20036;-68
2023/02/26 01:12:47;;;;;;;0.20;0.20;;;;;;;12.51;72.30;98344.56;5035821;28;20033;-68
2023/02/26 01:15:13;;;;;;;0.20;0.20;;;;;;;12.46;72.41;98342.25;5038245;28;20078;-68
2023/02/26 01:17:53;;;;;;;0.20;0.20;;;;;;;12.42;72.93;98331.16;5057172;28;20025;-68
2023/02/26 01:20:25;;;;;;;0.20;0.20;;;;;;;12.40;73.61;98327.22;5039395;28;20063;-69
2023/02/26 01:22:59;;;;;;;0.20;0.20;;;;;;;12.33;73.86;98328.09;5039096;28;20420;-68
2023/02/26 01:25:38;;;;;;;0.20;0.20;;;;;;;12.23;74.56;98306.72;5039639;28;20467;-68
2023/02/26 01:28:03;;;;;;;0.20;0.20;;;;;;;12.27;74.90;98296.31;5040378;28;20025;-72
2023/02/26 01:30:29;;;;;;;0.20;0.20;;;;;;;12.19;75.41;98303.19;5039641;28;20039;-68
2023/02/26 01:32:58;;;;;;;0.20;0.20;;;;;;;12.17;75.47;98294.47;5039372;28;20039;-68
2023/02/26 01:35:44;;;;;;;0.20;0.20;;;;;;;12.15;76.44;98305.25;5038934;28;20036;-67
2023/02/26 01:38:12;;;;;;;0.20;0.20;;;;;;;12.12;76.56;98300.50;5039515;28;20124;-70
2023/02/26 01:41:14;;;;;;;0.20;0.20;;;;;;;12.17;76.61;98295.25;5057159;28;20028;-67
2023/02/26 01:43:59;;;;;;;0.20;0.20;;;;;;;12.09;77.20;98290.19;5039304;28;20028;-68
2023/02/26 01:47:12;;;;;;;0.20;0.20;;;;;;;11.98;77.49;98291.13;5039353;28;20033;-67
2023/02/26 01:49:38;;;;;;;0.20;0.20;;;;;;;11.99;77.54;98289.94;4959269;28;20027;-68
2023/02/26 01:52:05;;;;;;;0.30;0.30;;;;;;;12.41;82.73;98289.72;5039185;28;20095;-67
2023/02/26 01:54:34;;;;;;;0.20;0.20;;;;;;;12.66;80.30;98290.16;5039690;28;20470;-68
2023/02/26 01:57:13;;;;;;;0.20;0.20;;;;;;;12.42;80.45;98292.13;5039002;28;20049;-67
2023/02/26 01:59:44;;;;;;;0.20;0.20;;;;;;;12.61;86.87;98281.47;5039002;28;20106;-68
2023/02/26 02:02:12;;;;;;;0.20;0.20;;;;;;;12.52;87.40;98263.28;5039362;28;20087;-67
2023/02/26 02:04:40;;;;;;;0.20;0.20;;;;;;;12.89;88.43;98271.84;5057704;28;20459;-68
2023/02/26 02:07:07;;;;;;;0.20;0.20;;;;;;;12.77;88.78;98273.25;5039540;28;20467;-67
2023/02/26 02:09:33;;;;;;;0.20;0.20;;;;;;;12.71;89.42;98267.34;5039242;28;20047;-68
2023/02/26 02:12:06;;;;;;;0.20;0.20;;;;;;;12.58;89.43;98267.16;5055972;28;20029;-70
2023/02/26 02:14:55;;;;;;;0.20;0.20;;;;;;;12.55;88.79;98256.84;5038542;28;20024;-71
2023/02/26 02:17:42;;;;;;;0.20;0.20;;;;;;;12.52;88.50;98260.50;5038302;28;20124;-68
2023/02/26 02:20:37;;;;;;;0.20;0.20;;;;;;;12.48;88.25;98256.19;5039367;28;20024;-68
2023/02/26 02:23:29;;;;;;;0.20;0.20;;;;;;;12.32;89.11;98256.81;5038970;28;20056;-67
2023/02/26 02:26:01;;;;;;;0.20;0.20;;;;;;;12.21;90.20;98256.97;5037483;28;20119;-68
2023/02/26 02:29:04;;;;;;;0.20;0.20;;;;;;;12.02;90.81;98236.13;5038656;28;20424;-69
2023/02/26 02:31:42;;;;;;;0.20;0.20;;;;;;;12.05;91.13;98246.44;5021165;28;20548;-72
2023/02/26 02:34:17;;;;;;;0.20;0.20;;;;;;;12.01;91.95;98248.47;5037952;28;20040;-68
2023/02/26 02:36:56;;;;;;;0.20;0.20;;;;;;;11.98;92.74;98245.75;5055702;28;20025;-69
2023/02/26 02:39:31;;;;;;;0.30;0.30;;;;;;;11.91;93.34;98229.91;5038084;28;20025;-69
2023/02/26 02:42:08;;;;;;;0.20;0.20;;;;;;;12.01;93.84;98234.56;5055691;28;20028;-69
2023/02/26 02:44:38;;;;;;;0.20;0.20;;;;;;;11.92;95.12;98237.06;5038282;28;20167;-68
2023/02/26 02:47:05;;;;;;;0.20;0.20;;;;;;;11.74;94.63;98208.63;5038341;28;20477;-71
2023/02/26 02:49:41;;;;;;;0.20;0.20;;;;;;;12.00;95.15;98244.13;5038160;28;20029;-70
2023/02/26 02:52:16;;;;;;;0.30;0.30;;;;;;;11.88;95.02;98235.53;5038150;28;20017;-69
2023/02/26 02:54:59;;;;;;;0.25;0.25;;;;;;;11.81;95.78;98244.75;5038558;28;20032;-69
2023/02/26 02:57:40;;;;;;;0.20;0.20;;;;;;;11.73;96.16;98244.06;5037064;28;20064;-70
2023/02/26 03:00:10;;;;;;;0.20;0.20;;;;;;;11.73;97.39;98244.06;5018410;28;20029;-69
2023/02/26 03:02:56;;;;;;;0.20;0.20;;;;;;;11.72;97.96;98255.63;5017681;28;20112;-69
2023/02/26 03:05:22;;;;;;;0.20;0.20;;;;;;;11.79;97.50;98242.38;5018014;28;20056;-69
2023/02/26 03:08:10;;;;;;;0.20;0.20;;;;;;;11.71;98.10;98242.88;5018066;28;20061;-70
2023/02/26 03:10:36;;;;;;;0.20;0.20;;;;;;;11.75;96.50;98238.06;5018167;28;20030;-69
2023/02/26 03:13:03;;;;;;;0.20;0.20;;;;;;;11.72;97.68;98238.91;5017861;28;20028;-69
2023/02/26 03:15:41;;;;;;;0.20;0.20;;;;;;;11.69;97.96;98234.16;5017969;28;20029;-69
2023/02/26 03:18:30;;;;;;;0.20;0.20;;;;;;;11.62;98.83;98232.25;5017968;28;20025;-68
2023/02/26 03:21:18;;;;;;;0.22;0.22;;;;;;;11.66;98.64;98224.63;5017545;28;20064;-69
2023/02/26 03:24:05;;;;;;;0.20;0.20;;;;;;;11.55;98.65;98221.97;5018549;28;20030;-69
2023/02/26 03:26:57;;;;;;;0.20;0.20;;;;;;;11.54;99.06;98222.41;5017438;28;20487;-69
2023/02/26 03:29:51;;;;;;;0.20;0.20;;;;;;;11.49;98.45;98218.06;5035484;28;20053;-68
2023/02/26 03:32:25;;;;;;;0.20;0.20;;;;;;;11.48;98.71;98219.28;5035631;28;20030;-69
2023/02/26 03:35:21;;;;;;;0.20;0.20;;;;;;;11.45;98.38;98220.13;5017476;28;20476;-68
2023/02/26 03:37:56;;;;;;;0.20;0.20;;;;;;;11.45;98.28;98217.34;5009800;28;20068;-69
2023/02/26 03:40:37;;;;;;;0.20;0.20;;;;;;;11.45;98.98;98214.56;5017516;28;20091;-68
2023/02/26 03:43:08;;;;;;;0.20;0.20;;;;;;;11.52;99.02;98219.25;5017093;28;20025;-70
2023/02/26 03:45:36;;;;;;;0.22;0.22;;;;;;;11.61;98.31;98221.50;5017430;28;20025;-69
2023/02/26 03:48:06;;;;;;;0.20;0.20;;;;;;;11.68;97.97;98213.88;5034618;28;20026;-69
2023/02/26 03:50:53;;;;;;;0.20;0.20;;;;;;;11.76;97.95;98212.56;5035275;28;20087;-72
2023/02/26 03:53:24;;;;;;;0.20;0.20;;;;;;;11.86;96.72;98219.22;5017088;28;20029;-69
2023/02/26 03:56:11;;;;;;;0.25;0.25;;;;;;;11.94;96.14;98212.38;5023796;28;20048;-71
2023/02/26 03:58:46;;;;;;;0.20;0.20;;;;;;;11.97;95.75;98216.28;5036993;28;20037;-69
2023/02/26 04:01:59;;;;;;;0.20;0.20;;;;;;;12.01;96.39;98217.03;5036963;28;20110;-69
2023/02/26 04:04:31;;;;;;;0.20;0.20;;;;;;;12.11;95.96;98213.31;4957291;28;20062;-69
2023/02/26 04:06:57;;;;;;;0.20;0.20;;;;;;;12.12;95.63;98216.88;5048480;28;20090;-69
2023/02/26 04:09:23;;;;;;;0.20;0.20;;;;;;;12.17;96.76;98213.63;5036203;28;20112;-68
2023/02/26 04:11:50;;;;;;;0.20;0.20;;;;;;;12.19;96.36;98217.56;5036367;28;20040;-69
2023/02/26 04:14:16;;;;;;;0.20;0.20;;;;;;;12.22;97.86;98208.34;5053652;28;20021;-72
2023/02/26 04:16:44;;;;;;;0.20;0.20;;;;;;;12.38;97.46;98204.94;5037665;28;20037;-69
2023/02/26 04:19:09;;;;;;;0.20;0.20;;;;;;;12.35;98.51;98208.56;5036953;28;20044;-69
2023/02/26 04:21:35;;;;;;;0.20;0.20;;;;;;;12.43;97.72;98220.41;5036381;28;20493;-69
2023/02/26 04:24:01;;;;;;;0.20;0.20;;;;;;;12.62;96.06;98210.50;5036281;28;20025;-68
2023/02/26 04:26:26;;;;;;;0.20;0.20;;;;;;;12.64;94.68;98213.69;5037642;28;20043;-68
2023/02/26 04:28:51;;;;;;;0.20;0.20;;;;;;;12.67;95.58;98213.59;5037383;28;20387;-68
2023/02/26 04:31:17;;;;;;;0.20;0.20;;;;;;;12.69;97.71;98216.00;5037267;28;20033;-68
2023/02/26 04:33:43;;;;;;;0.20;0.20;;;;;;;12.73;96.83;98217.50;5038439;28;20115;-69
2023/02/26 04:36:09;;;;;;;0.20;0.20;;;;;;;12.59;98.19;98212.94;5039497;28;20021;-69
2023/02/26 04:38:34;;;;;;;0.20;0.20;;;;;;;12.54;98.01;98216.22;5037445;28;20120;-69
2023/02/26 04:41:00;;;;;;;0.28;0.28;;;;;;;12.60;100.00;98219.31;5053849;28;20103;-69
2023/02/26 04:43:25;;;;;;;0.20;0.20;;;;;;;12.67;100.00;98212.81;5037180;28;20029;-69
2023/02/26 04:45:51;;;;;;;0.20;0.20;;;;;;;12.73;100.00;98205.53;5037441;28;20025;-69
2023/02/26 04:48:17;;;;;;;0.20;0.20;;;;;;;12.84;100.00;98211.75;5037149;28;20175;-69
2023/02/26 04:50:43;;;;;;;0.20;0.20;;;;;;;12.82;100.00;98208.56;5040181;28;20596;-71
2023/02/26 04:53:09;;;;;;;0.20;0.20;;;;;;;12.88;100.00;98204.06;5040472;28;20036;-70
2023/02/26 04:55:35;;;;;;;0.20;0.20;;;;;;;12.78;100.00;98191.09;5058305;28;20132;-69
2023/02/26 04:58:01;;;;;;;0.20;0.20;;;;;;;12.95;100.00;98201.16;5040704;28;20029;-70
2023/02/26 05:00:27;;;;;;;0.20;0.20;;;;;;;13.00;100.00;98203.47;5041073;28;20429;-69
2023/02/26 05:02:52;;;;;;;0.20;0.20;;;;;;;12.71;100.00;98171.69;5041219;28;20028;-69
2023/02/26 05:05:18;;;;;;;0.20;0.20;;;;;;;13.02;100.00;98205.81;5040294;28;20379;-69
2023/02/26 05:07:44;;;;;;;0.20;0.20;;;;;;;12.92;100.00;98168.50;5040624;28;20056;-68
2023/02/26 05:10:10;;;;;;;0.20;0.20;;;;;;;13.13;100.00;98194.47;5041381;28;20032;-68
2023/02/26 05:12:35;;;;;;;0.20;0.20;;;;;;;13.00;100.00;98186.72;5040474;28;20100;-69
2023/02/26 05:15:01;;;;;;;0.20;0.20;;;;;;;12.77;100.00;98170.78;5040495;28;20045;-69
2023/02/26 05:17:27;;;;;;;0.20;0.20;;;;;;;12.94;100.00;98193.19;5057830;28;20028;-69
2023/02/26 05:19:52;;;;;;;0.20;0.20;;;;;;;12.81;100.00;98195.84;5039956;28;20375;-69
2023/02/26 05:22:18;;;;;;;0.20;0.20;;;;;;;12.73;100.00;98194.38;5039286;28;20029;-69
2023/02/26 05:24:43;;;;;;;0.20;0.20;;;;;;;12.84;100.00;98192.22;5040230;28;20029;-69
2023/02/26 05:27:09;;;;;;;0.22;0.22;;;;;;;12.72;100.00;98187.22;5040958;28;20064;-69
2023/02/26 05:29:35;;;;;;;0.20;0.20;;;;;;;12.84;100.00;98189.41;5040307;28;20039;-71
2023/02/26 05:32:01;;;;;;;0.20;0.20;;;;;;;12.40;100.00;98143.13;5059018;28;20021;-70
2023/02/26 05:34:29;;;;;;;0.20;0.20;;;;;;;12.68;100.00;98181.72;5040792;28;20523;-69
2023/02/26 05:36:55;;;;;;;0.20;0.20;;;;;;;12.59;100.00;98184.25;5039583;28;20025;-68
2023/02/26 05:39:20;;;;;;;0.20;0.20;;;;;;;12.77;100.00;98198.69;5039355;28;20036;-69
2023/02/26 05:41:46;;;;;;;0.20;0.20;;;;;;;13.01;100.00;98193.09;5058208;28;20028;-69
2023/02/26 05:44:12;;;;;;;0.20;0.20;;;;;;;12.90;100.00;98203.66;5040753;28;20032;-69
2023/02/26 05:46:37;;;;;;;0.20;0.20;;;;;;;12.87;100.00;98205.28;5040066;28;20379;-70
2023/02/26 05:49:05;;;;;;;0.20;0.20;;;;;;;12.85;100.00;98202.94;5041438;28;20028;-68
2023/02/26 05:51:30;;;;;;;0.20;0.20;;;;;;;12.93;100.00;98209.16;5042842;28;20024;-69
2023/02/26 05:53:56;;;;;;;0.20;0.20;;;;;;;12.96;100.00;98202.75;5042706;28;20033;-72
2023/02/26 05:56:21;;;;;;;0.20;0.20;;;;;;;12.84;100.00;98200.56;5041588;28;20045;-70
2023/02/26 05:58:47;;;;;;;0.20;0.20;;;;;;;12.81;100.00;98213.38;5042268;28;20041;-69
2023/02/26 06:01:13;;;;;;;0.20;0.20;;;;;;;12.80;100.00;98214.59;5040684;28;20387;-69
2023/02/26 06:03:42;;;;;;;0.20;0.20;;;;;;;12.76;100.00;98213.06;5059959;28;20036;-68
2023/02/26 06:06:09;;;;;;;0.20;0.20;;;;;;;12.73;100.00;98213.91;5041541;28;20186;-70
2023/02/26 06:08:37;;;;;;;0.30;0.30;;;;;;;12.93;100.00;98220.31;5042441;28;20025;-69
2023/02/26 06:11:03;;;;;;;0.20;0.20;;;;;;;12.92;100.00;98218.75;5042124;28;20025;-68
2023/02/26 06:13:28;;;;;;;0.20;0.20;;;;;;;12.79;100.00;98210.22;5041901;28;20052;-69
2023/02/26 06:15:54;;;;;;;0.20;0.20;;;;;;;12.85;100.00;98225.25;5042171;28;20025;-69
2023/02/26 06:18:19;;;;;;;0.20;0.20;;;;;;;12.84;100.00;98211.75;5041659;28;20376;-68
2023/02/26 06:20:45;;;;;;;0.20;0.20;;;;;;;12.79;100.00;98193.47;5040980;28;20106;-68
2023/02/26 06:23:10;;;;;;;0.20;0.20;;;;;;;12.87;100.00;98216.44;5041429;28;20378;-69
2023/02/26 06:25:36;;;;;;;0.20;0.20;;;;;;;12.93;100.00;98220.31;5040831;28;20069;-69
2023/02/26 06:28:01;;;;;;;0.20;0.20;;;;;;;12.84;100.00;98214.53;5041124;28;20025;-71
2023/02/26 06:30:29;;;;;;;0.20;0.20;;;;;;;12.87;100.00;98227.63;5040390;28;20429;-72
2023/02/26 06:32:54;;;;;;;0.20;0.20;;;;;;;12.81;100.00;98234.91;5040745;28;20037;-69
2023/02/26 06:35:20;;;;;;;0.20;0.20;;;;;;;12.74;100.00;98235.03;5056985;28;20032;-69
2023/02/26 06:37:45;;;;;;;0.20;0.20;;;;;;;12.74;100.00;98257.34;5038572;28;20460;-71
2023/02/26 06:40:11;;;;;;;0.20;0.20;;;;;;;12.57;100.00;98225.75;5038485;28;20095;-70
2023/02/26 06:42:37;;;;;;;0.20;0.20;;;;;;;12.71;100.00;98252.63;5038610;28;20108;-69
2023/02/26 06:45:03;;;;;;;0.20;0.20;;;;;;;12.82;100.00;98242.06;5039258;28;20462;-69
2023/02/26 06:47:31;;;;;;;0.20;0.20;;;;;;;12.83;100.00;98255.56;5056287;28;20048;-70
2023/02/26 06:49:57;;;;;;;0.20;0.20;;;;;;;12.93;100.00;98259.41;5038570;28;20021;-69
2023/02/26 06:52:22;;;;;;;0.20;0.20;;;;;;;13.01;100.00;98255.28;5038150;28;20029;-69
2023/02/26 06:54:48;;;;;;;0.20;0.20;;;;;;;13.17;100.00;98256.63;5037014;28;20394;-70
2023/02/26 06:57:14;;;;;;;0.20;0.20;;;;;;;13.46;100.00;98256.88;5055848;28;20090;-70
2023/02/26 06:59:39;;;;;;;0.20;0.20;;;;;;;13.46;100.00;98256.88;5055555;28;20356;-69
2023/02/26 07:02:05;;;;;;;0.20;0.20;;;;;;;13.58;100.00;98271.03;5037238;28;20039;-68
2023/02/26 07:04:30;;;;;;;0.20;0.20;;;;;;;13.68;100.00;98271.22;5037195;28;20029;-69
2023/02/26 07:06:56;;;;;;;0.20;0.20;;;;;;;13.68;100.00;98265.63;5037231;28;20043;-68
2023/02/26 07:09:21;;;;;;;0.20;0.20;;;;;;;13.84;100.00;98280.44;5055460;28;20021;-71
2023/02/26 07:11:47;;;;;;;0.20;0.20;;;;;;;13.96;100.00;98278.25;5037273;28;20059;-66
2023/02/26 07:14:12;;;;;;;0.20;0.20;;;;;;;14.02;100.00;98271.72;5036973;28;20452;-68
2023/02/26 07:16:38;;;;;;;0.20;0.20;;;;;;;14.26;100.00;98275.16;5037434;28;20029;-66
2023/02/26 07:19:03;;;;;;;0.20;0.20;;;;;;;14.31;100.00;98273.88;5037183;28;20365;-67
2023/02/26 07:21:32;;;;;;;0.20;0.20;;;;;;;14.58;100.00;98280.06;5036864;28;20087;-66
2023/02/26 07:23:57;;;;;;;0.20;0.20;;;;;;;14.73;100.00;98276.91;5037094;28;20029;-68
2023/02/26 07:26:22;;;;;;;0.20;0.20;;;;;;;14.98;100.00;98287.50;5037303;28;20048;-65
2023/02/26 07:28:48;;;;;;;0.20;0.20;;;;;;;15.27;100.00;98285.53;5037052;28;20025;-66
2023/02/26 07:31:15;;;;;;;0.20;0.20;;;;;;;15.50;100.00;98278.13;5037426;28;20024;-72
2023/02/26 07:33:40;;;;;;;0.20;0.20;;;;;;;15.64;99.71;98286.97;5054345;28;20021;-68
2023/02/26 07:36:06;;;;;;;0.20;0.20;;;;;;;15.79;98.46;98280.97;5036844;28;20385;-72
2023/02/26 07:38:32;;;;;;;0.20;0.20;;;;;;;15.82;96.11;98282.88;5036942;28;20471;-70
2023/02/26 07:41:00;;;;;;;0.20;0.20;;;;;;;15.96;95.13;98280.44;5036675;28;20029;-68
2023/02/26 07:43:25;;;;;;;0.20;0.20;;;;;;;16.24;95.23;98276.03;5036617;28;20036;-67
2023/02/26 07:45:51;;;;;;;0.20;0.20;;;;;;;16.49;93.06;98288.50;5036980;28;20025;-66
2023/02/26 07:48:17;;;;;;;0.20;0.20;;;;;;;16.47;90.29;98285.34;5036113;28;20059;-66
2023/02/26 07:50:42;;;;;;;0.20;0.20;;;;;;;16.60;89.95;98291.75;5036834;28;20530;-65
2023/02/26 07:53:08;;;;;;;0.20;0.20;;;;;;;16.72;89.25;98279.78;5037385;28;20486;-66
2023/02/26 07:55:33;;;;;;;0.20;0.20;;;;;;;16.63;88.14;98290.84;5037416;28;20388;-68
2023/02/26 07:58:01;;;;;;;0.20;0.20;;;;;;;16.71;87.21;98288.63;5037680;28;20537;-66
2023/02/26 08:00:27;;;;;;;0.20;0.20;;;;;;;16.74;87.53;98294.13;5038193;28;20043;-66
2023/02/26 08:02:52;;;;;;;0.20;0.20;;;;;;;16.76;87.04;98290.88;5036312;28;20032;-67
2023/02/26 08:05:18;;;;;;;0.20;0.20;;;;;;;16.60;86.75;98288.94;5036851;28;20033;-66
2023/02/26 08:07:44;;;;;;;0.20;0.20;;;;;;;16.52;88.49;98284.78;5036161;28;20356;-67
2023/02/26 08:10:10;;;;;;;0.20;0.20;;;;;;;16.36;89.29;98298.94;5036152;28;20032;-68
2023/02/26 08:12:36;;;;;;;0.20;0.20;;;;;;;16.24;89.88;98297.66;5036281;28;20021;-66
2023/02/26 08:15:02;;;;;;;0.20;0.20;;;;;;;16.22;89.48;98295.31;5036557;28;20063;-67
2023/02/26 08:17:28;;;;;;;0.20;0.20;;;;;;;16.04;91.24;98295.06;5036206;28;20475;-68
2023/02/26 08:19:54;;;;;;;0.20;0.20;;;;;;;16.09;91.65;98300.13;5053557;28;20033;-66
2023/02/26 08:22:20;;;;;;;0.20;0.20;;;;;;;16.26;91.24;98297.22;5036392;28;20029;-66
2023/02/26 08:24:46;;;;;;;0.20;0.20;;;;;;;16.43;90.32;98298.69;5053183;28;20074;-67
2023/02/26 08:27:11;;;;;;;0.20;0.20;;;;;;;16.06;91.00;98272.94;5036521;28;20033;-68
2023/02/26 08:29:37;;;;;;;0.20;0.20;;;;;;;16.38;88.59;98304.88;5035929;28;20455;-66
2023/02/26 08:32:02;;;;;;;0.20;0.20;;;;;;;16.28;88.41;98297.56;5035745;28;20060;-68
2023/02/26 08:34:28;;;;;;;0.20;0.20;;;;;;;15.95;91.16;98303.34;5036586;28;20029;-68
2023/02/26 08:36:54;;;;;;;0.20;0.20;;;;;;;15.88;91.47;98307.13;5036194;28;20159;-66
2023/02/26 08:39:19;;;;;;;0.20;0.20;;;;;;;15.69;92.37;98308.06;5036432;28;20035;-69
2023/02/26 08:41:45;;;;;;;0.20;0.20;;;;;;;15.51;93.58;98305.72;5036213;28;20517;-74
2023/02/26 08:44:10;;;;;;;0.20;0.20;;;;;;;15.50;95.38;98304.16;5036009;28;20090;-70
2023/02/26 08:46:36;;;;;;;0.20;0.20;;;;;;;15.61;95.17;98304.66;5036415;28;20168;-66
2023/02/26 08:49:05;;;;;;;0.20;0.20;;;;;;;15.53;95.94;98300.47;5036374;28;20029;-66
2023/02/26 08:51:30;;;;;;;0.20;0.20;;;;;;;15.57;96.56;98303.97;5036040;28;20083;-67
2023/02/26 08:53:56;;;;;;;0.20;0.20;;;;;;;15.74;95.66;98307.53;5035815;28;20382;-68
2023/02/26 08:56:21;;;;;;;0.20;0.20;;;;;;;15.75;95.16;98302.69;5035361;28;20079;-67
2023/02/26 08:58:47;;;;;;;0.20;0.20;;;;;;;15.77;94.51;98306.66;5035595;28;20382;-75
2023/02/26 09:01:12;;;;;;;0.20;0.20;;;;;;;15.76;95.16;98312.69;5036310;28;20036;-69
2023/02/26 09:03:38;;;;;;;0.20;0.20;;;;;;;15.70;94.84;98313.22;5036187;28;20483;-66
2023/02/26 09:06:04;;;;;;;0.20;0.20;;;;;;;15.50;94.31;98320.97;5035993;28;20178;-67
2023/02/26 09:08:33;;;;;;;0.20;0.20;;;;;;;15.31;93.20;98291.06;5035665;28;20021;-67
2023/02/26 09:11:01;;;;;;;0.20;0.20;;;;;;;15.56;92.90;98330.41;5036058;28;20482;-71
2023/02/26 09:13:27;;;;;;;0.20;0.20;;;;;;;15.68;93.45;98321.31;5036444;28;20112;-68
2023/02/26 09:15:53;;;;;;;0.20;0.20;;;;;;;15.82;92.48;98313.72;5036091;28;20040;-66
2023/02/26 09:18:18;;;;;;;0.20;0.20;;;;;;;15.67;93.43;98314.13;5035919;28;20029;-67
2023/02/26 09:20:44;;;;;;;0.20;0.20;;;;;;;15.63;94.73;98321.84;5037050;28;20120;-66
2023/02/26 09:23:12;;;;;;;0.20;0.20;;;;;;;15.71;95.08;98314.00;5054848;28;20036;-65
2023/02/26 09:25:37;;;;;;;0.20;0.20;;;;;;;15.76;95.23;98315.50;5038151;28;20486;-69
2023/02/26 09:28:06;;;;;;;0.20;0.20;;;;;;;15.54;97.75;98306.84;5037287;28;20025;-66
2023/02/26 09:30:31;;;;;;;0.20;0.20;;;;;;;15.74;98.33;98312.34;5037411;28;20383;-65
2023/02/26 09:33:00;;;;;;;0.20;0.20;;;;;;;15.97;96.95;98314.88;5054442;28;20036;-67
2023/02/26 09:35:25;;;;;;;0.20;0.20;;;;;;;16.22;95.93;98312.16;5036167;28;20523;-68
2023/02/26 09:37:51;;;;;;;0.20;0.20;;;;;;;16.77;91.97;98312.88;5039758;28;20025;-68
2023/02/26 09:40:40;;;;;;;0.20;0.20;;;;;;;16.73;87.65;98320.66;5057362;28;20368;-66
2023/02/26 09:43:43;;;;;;;0.20;0.20;;;;;;;17.53;85.07;98328.84;5058373;28;20028;-66
2023/02/26 09:46:32;;;;;;;0.20;0.20;;;;;;;17.22;84.22;98330.72;5039452;28;20025;-69
2023/02/26 09:49:20;;;;;;;0.20;0.20;;;;;;;16.75;84.61;98345.47;5039934;28;20416;-67
2023/02/26 09:51:52;;;;;;;0.20;0.20;;;;;;;16.45;86.55;98349.56;5040315;28;20025;-65
2023/02/26 09:54:24;;;;;;;0.20;0.20;;;;;;;16.11;86.98;98341.75;5057418;28;20021;-64
2023/02/26 09:56:51;;;;;;;0.20;0.20;;;;;;;16.28;87.23;98350.88;5039145;28;20045;-67
2023/02/26 09:59:17;;;;;;;0.20;0.20;;;;;;;16.13;88.00;98345.66;5040532;28;20021;-65
2023/02/26 10:02:09;;;;;;;0.20;0.20;;;;;;;16.18;87.95;98353.53;5040742;28;20036;-64
2023/02/26 10:04:57;;;;;;;0.20;0.20;;;;;;;16.15;88.83;98359.28;5027447;28;20041;-65
2023/02/26 10:07:41;;;;;;;0.20;0.20;;;;;;;16.12;87.17;98332.88;5040167;28;20033;-65
2023/02/26 10:10:18;;;;;;;0.20;0.20;;;;;;;16.19;85.75;98332.69;5041330;28;20025;-64
2023/02/26 10:12:46;;;;;;;0.20;0.20;;;;;;;16.28;82.18;98351.66;5040552;28;20048;-67
2023/02/26 10:15:19;;;;;;;0.20;0.20;;;;;;;16.66;79.08;98348.13;5041539;28;20096;-65
2023/02/26 10:17:51;;;;;;;0.20;0.20;;;;;;;16.64;76.98;98359.03;5058694;28;20381;-65
2023/02/26 10:20:30;;;;;;;0.20;0.20;;;;;;;16.44;77.39;98353.59;5040901;28;20033;-67
2023/02/26 10:23:01;;;;;;;0.20;0.20;;;;;;;16.33;84.35;98361.56;5040515;28;20040;-67
2023/02/26 10:25:34;;;;;;;0.20;0.20;;;;;;;15.82;81.70;98370.59;5041141;28;20092;-70
2023/02/26 10:28:05;;;;;;;0.20;0.20;;;;;;;15.78;82.99;98377.53;5058220;28;20033;-64
2023/02/26 10:30:39;;;;;;;0.20;0.20;;;;;;;15.33;83.29;98372.66;5040365;28;20471;-64
2023/02/26 10:33:26;;;;;;;0.20;0.20;;;;;;;15.34;83.86;98380.63;5040392;28;20087;-69
2023/02/26 10:35:56;;;;;;;0.20;0.20;;;;;;;15.35;85.06;98382.22;5039321;28;20025;-63
2023/02/26 10:38:28;;;;;;;0.20;0.20;;;;;;;15.42;88.36;98384.81;5039838;28;20087;-74
2023/02/26 10:41:04;;;;;;;0.20;0.20;;;;;;;15.10;88.95;98382.81;5057329;28;20029;-66
2023/02/26 10:43:32;;;;;;;0.20;0.20;;;;;;;14.99;90.62;98387.09;5039478;28;20259;-70
2023/02/26 10:46:17;;;;;;;0.20;0.20;;;;;;;14.64;95.26;98390.25;5040645;28;20029;-70
2023/02/26 10:48:54;;;;;;;0.20;0.20;;;;;;;14.56;95.66;98383.25;5056574;28;20074;-64
2023/02/26 10:51:24;;;;;;;0.20;0.20;;;;;;;14.45;96.85;98399.47;5038540;28;20033;-65
2023/02/26 10:53:57;;;;;;;0.20;0.20;;;;;;;14.32;97.24;98402.09;5038316;28;20052;-66
2023/02/26 10:56:30;;;;;;;0.20;0.20;;;;;;;14.15;97.67;98420.84;5038881;28;20079;-67
2023/02/26 10:58:55;;;;;;;0.25;0.25;;;;;;;14.14;99.57;98408.06;5039604;28;20037;-68
2023/02/26 11:01:25;;;;;;;0.20;0.20;;;;;;;13.88;100.00;98417.38;5039772;28;20044;-67
2023/02/26 11:03:57;;;;;;;0.20;0.20;;;;;;;13.53;100.00;98413.19;5057722;28;20025;-68
2023/02/26 11:06:32;;;;;;;0.20;0.20;;;;;;;13.43;100.00;98412.19;5039531;28;20029;-65
2023/02/26 11:09:01;;;;;;;0.20;0.20;;;;;;;13.56;100.00;98409.56;5039661;28;20536;-65
2023/02/26 11:11:49;;;;;;;0.20;0.20;;;;;;;13.77;100.00;98395.19;5040264;28;20036;-70
2023/02/26 11:14:15;;;;;;;0.20;0.20;;;;;;;13.75;100.00;98400.44;5040769;28;20035;-66
2023/02/26 11:16:54;;;;;;;0.20;0.20;;;;;;;13.81;100.00;98401.53;5040085;28;20029;-67
2023/02/26 11:19:27;;;;;;;0.20;0.20;;;;;;;13.77;100.00;98394.41;5039433;28;20025;-66
2023/02/26 11:21:55;;;;;;;0.20;0.20;;;;;;;13.79;100.00;98397.56;5057546;28;20032;-66
2023/02/26 11:24:39;;;;;;;0.20;0.20;;;;;;;13.78;100.00;98401.56;5039020;28;20087;-69
2023/02/26 11:27:07;;;;;;;;;;;;;;;13.82;100.00;98396.72;5038988;28;20033;-68
2023/02/26 11:29:46;;;;;;;0.28;0.28;;;;;;;13.78;100.00;98410.75;5038756;28;20063;-69
2023/02/26 11:32:28;;;;;;;0.20;0.20;;;;;;;13.87;100.00;98418.59;5034357;28;20040;-68
2023/02/26 11:34:54;;;;;;;0.20;0.20;;;;;;;13.65;100.00;98426.56;5057088;28;20025;-68
2023/02/26 11:37:25;;;;;;;0.20;0.20;;;;;;;13.74;100.00;98431.59;5023046;28;20442;-68
2023/02/26 11:39:59;;;;;;;0.20;0.20;;;;;;;13.83;100.00;98426.25;5038612;28;20021;-72
2023/02/26 11:42:27;;;;;;;0.20;0.20;;;;;;;13.71;100.00;98424.88;5039480;28;20037;-69
2023/02/26 11:44:53;;;;;;;0.20;0.20;;;;;;;13.90;100.00;98437.28;5039612;28;20549;-68
2023/02/26 11:47:24;;;;;;;0.20;0.20;;;;;;;13.85;100.00;98433.00;5039299;28;20032;-69
2023/02/26 11:49:52;;;;;;;0.20;0.20;;;;;;;13.99;100.00;98428.34;5039013;28;20436;-68